sensor_id;sensor_type;location;lat;lon;timestamp;pressure;altitude;pressure_sealevel;temperature;humidity
76404;BME280;65232;48.358;2.122;2022-12-29T00:00:15;100067.31;;;11.46;84.10
76404;BME280;65232;48.358;2.122;2022-12-29T00:00:41;100066.03;;;11.50;84.20
76404;BME280;65232;48.358;2.122;2022-12-29T00:01:06;100066.72;;;11.52;84.09
76404;BME280;65232;48.358;2.122;2022-12-29T00:01:32;100070.09;;;11.54;84.00
76404;BME280;65232;48.358;2.122;2022-12-29T00:01:58;100068.41;;;11.53;83.87
76404;BME280;65232;48.358;2.122;2022-12-29T00:02:23;100065.34;;;11.48;83.97
76404;BME280;65232;48.358;2.122;2022-12-29T00:02:49;100064.63;;;11.46;84.16
76404;BME280;65232;48.358;2.122;2022-12-29T00:03:14;100061.66;;;11.49;84.04
76404;BME280;65232;48.358;2.122;2022-12-29T00:03:40;100057.59;;;11.45;84.07
76404;BME280;65232;48.358;2.122;2022-12-29T00:04:06;100052.22;;;11.45;84.11
76404;BME280;65232;48.358;2.122;2022-12-29T00:04:31;100069.16;;;11.45;83.97
76404;BME280;65232;48.358;2.122;2022-12-29T00:04:57;100061.66;;;11.49;84.06
76404;BME280;65232;48.358;2.122;2022-12-29T00:05:23;100056.69;;;11.54;84.07
76404;BME280;65232;48.358;2.122;2022-12-29T00:05:56;100065.03;;;11.51;83.86
76404;BME280;65232;48.358;2.122;2022-12-29T00:06:22;100060.66;;;11.50;83.95
76404;BME280;65232;48.358;2.122;2022-12-29T00:06:48;100059.53;;;11.52;83.90
76404;BME280;65232;48.358;2.122;2022-12-29T00:07:13;100054.88;;;11.54;83.80
76404;BME280;65232;48.358;2.122;2022-12-29T00:07:39;100060.09;;;11.56;83.57
76404;BME280;65232;48.358;2.122;2022-12-29T00:08:04;100058.38;;;11.55;83.47
76404;BME280;65232;48.358;2.122;2022-12-29T00:08:30;100069.81;;;11.57;83.49
76404;BME280;65232;48.358;2.122;2022-12-29T00:09:07;100068.50;;;11.61;83.14
76404;BME280;65232;48.358;2.122;2022-12-29T00:09:34;100065.66;;;11.62;83.02
76404;BME280;65232;48.358;2.122;2022-12-29T00:09:59;100059.59;;;11.60;83.31
76404;BME280;65232;48.358;2.122;2022-12-29T00:10:25;100049.88;;;11.59;83.31
76404;BME280;65232;48.358;2.122;2022-12-29T00:10:50;100058.59;;;11.61;83.32
76404;BME280;65232;48.358;2.122;2022-12-29T00:11:18;100059.16;;;11.65;83.06
76404;BME280;65232;48.358;2.122;2022-12-29T00:11:44;100061.84;;;11.65;83.27
76404;BME280;65232;48.358;2.122;2022-12-29T00:12:10;100073.16;;;11.59;83.24
76404;BME280;65232;48.358;2.122;2022-12-29T00:12:35;100054.72;;;11.56;83.50
76404;BME280;65232;48.358;2.122;2022-12-29T00:13:19;100061.59;;;11.58;83.47
76404;BME280;65232;48.358;2.122;2022-12-29T00:14:04;100059.09;;;11.57;83.30
76404;BME280;65232;48.358;2.122;2022-12-29T00:14:48;100041.84;;;11.59;82.84
76404;BME280;65232;48.358;2.122;2022-12-29T00:15:32;100065.09;;;11.59;83.05
76404;BME280;65232;48.358;2.122;2022-12-29T00:16:06;100060.59;;;11.59;83.10
76404;BME280;65232;48.358;2.122;2022-12-29T00:16:33;100048.53;;;11.55;83.21
76404;BME280;65232;48.358;2.122;2022-12-29T00:16:59;100058.91;;;11.58;82.95
76404;BME280;65232;48.358;2.122;2022-12-29T00:17:26;100050.56;;;11.61;83.03
76404;BME280;65232;48.358;2.122;2022-12-29T00:17:51;100059.31;;;11.63;82.89
76404;BME280;65232;48.358;2.122;2022-12-29T00:18:16;100049.28;;;11.65;83.04
76404;BME280;65232;48.358;2.122;2022-12-29T00:18:42;100051.81;;;11.67;82.76
76404;BME280;65232;48.358;2.122;2022-12-29T00:19:07;100060.53;;;11.69;82.45
76404;BME280;65232;48.358;2.122;2022-12-29T00:19:53;100037.25;;;11.70;82.31
76404;BME280;65232;48.358;2.122;2022-12-29T00:20:37;100054.19;;;11.70;82.52
76404;BME280;65232;48.358;2.122;2022-12-29T00:21:22;100047.75;;;11.63;82.72
76404;BME280;65232;48.358;2.122;2022-12-29T00:22:10;100044.97;;;11.73;82.38
76404;BME280;65232;48.358;2.122;2022-12-29T00:22:54;100052.50;;;11.69;82.62
76404;BME280;65232;48.358;2.122;2022-12-29T00:23:38;100051.38;;;11.72;82.27
76404;BME280;65232;48.358;2.122;2022-12-29T00:24:22;100065.75;;;11.71;82.16
76404;BME280;65232;48.358;2.122;2022-12-29T00:25:08;100056.66;;;11.81;81.93
76404;BME280;65232;48.358;2.122;2022-12-29T00:25:53;100051.00;;;11.84;81.80
76404;BME280;65232;48.358;2.122;2022-12-29T00:26:37;100051.69;;;11.86;82.13
76404;BME280;65232;48.358;2.122;2022-12-29T00:27:21;100048.31;;;11.84;81.92
76404;BME280;65232;48.358;2.122;2022-12-29T00:28:09;100045.94;;;11.81;81.80
76404;BME280;65232;48.358;2.122;2022-12-29T00:28:53;100044.09;;;11.82;82.16
76404;BME280;65232;48.358;2.122;2022-12-29T00:29:37;100043.97;;;11.83;82.22
76404;BME280;65232;48.358;2.122;2022-12-29T00:30:22;100038.28;;;11.86;82.24
76404;BME280;65232;48.358;2.122;2022-12-29T00:31:11;100049.16;;;11.85;82.07
76404;BME280;65232;48.358;2.122;2022-12-29T00:31:55;100046.78;;;11.82;82.37
76404;BME280;65232;48.358;2.122;2022-12-29T00:32:39;100043.72;;;11.77;82.51
76404;BME280;65232;48.358;2.122;2022-12-29T00:33:28;100041.47;;;11.72;82.71
76404;BME280;65232;48.358;2.122;2022-12-29T00:34:12;100050.75;;;11.78;82.75
76404;BME280;65232;48.358;2.122;2022-12-29T00:34:56;100038.75;;;11.82;82.37
76404;BME280;65232;48.358;2.122;2022-12-29T00:35:38;100026.34;;;11.81;82.38
76404;BME280;65232;48.358;2.122;2022-12-29T00:36:15;100033.09;;;11.75;82.67
76404;BME280;65232;48.358;2.122;2022-12-29T00:36:42;100038.47;;;11.75;82.67
76404;BME280;65232;48.358;2.122;2022-12-29T00:37:08;100028.47;;;11.77;82.82
76404;BME280;65232;48.358;2.122;2022-12-29T00:37:35;100035.94;;;11.74;82.80
76404;BME280;65232;48.358;2.122;2022-12-29T00:38:21;100027.38;;;11.70;82.96
76404;BME280;65232;48.358;2.122;2022-12-29T00:39:16;100016.66;;;11.70;83.04
76404;BME280;65232;48.358;2.122;2022-12-29T00:40:02;100035.94;;;11.74;82.76
76404;BME280;65232;48.358;2.122;2022-12-29T00:41:00;100022.19;;;11.69;83.24
76404;BME280;65232;48.358;2.122;2022-12-29T00:41:44;100029.69;;;11.65;83.35
76404;BME280;65232;48.358;2.122;2022-12-29T00:42:29;100033.44;;;11.72;83.09
76404;BME280;65232;48.358;2.122;2022-12-29T00:43:13;100015.28;;;11.66;83.25
76404;BME280;65232;48.358;2.122;2022-12-29T00:43:58;100019.50;;;11.69;83.03
76404;BME280;65232;48.358;2.122;2022-12-29T00:44:32;100011.47;;;11.69;83.25
76404;BME280;65232;48.358;2.122;2022-12-29T00:44:58;100017.81;;;11.68;83.26
76404;BME280;65232;48.358;2.122;2022-12-29T00:45:23;100014.50;;;11.74;82.92
76404;BME280;65232;48.358;2.122;2022-12-29T00:45:49;100011.56;;;11.77;82.92
76404;BME280;65232;48.358;2.122;2022-12-29T00:46:14;100017.91;;;11.76;82.96
76404;BME280;65232;48.358;2.122;2022-12-29T00:46:41;100016.06;;;11.76;82.83
76404;BME280;65232;48.358;2.122;2022-12-29T00:47:07;100021.53;;;11.75;83.05
76404;BME280;65232;48.358;2.122;2022-12-29T00:47:32;100012.25;;;11.79;82.79
76404;BME280;65232;48.358;2.122;2022-12-29T00:47:58;100021.69;;;11.73;82.95
76404;BME280;65232;48.358;2.122;2022-12-29T00:48:23;100005.34;;;11.76;82.91
76404;BME280;65232;48.358;2.122;2022-12-29T00:49:10;100008.16;;;11.75;83.10
76404;BME280;65232;48.358;2.122;2022-12-29T00:49:54;100000.81;;;11.77;83.13
76404;BME280;65232;48.358;2.122;2022-12-29T00:50:20;100019.19;;;11.72;82.97
76404;BME280;65232;48.358;2.122;2022-12-29T00:50:46;100002.78;;;11.75;82.94
76404;BME280;65232;48.358;2.122;2022-12-29T00:51:11;100004.19;;;11.79;82.86
76404;BME280;65232;48.358;2.122;2022-12-29T00:51:37;100010.41;;;11.79;82.72
76404;BME280;65232;48.358;2.122;2022-12-29T00:52:30;100006.31;;;11.75;82.69
76404;BME280;65232;48.358;2.122;2022-12-29T00:52:55;100007.03;;;11.77;82.87
76404;BME280;65232;48.358;2.122;2022-12-29T00:53:20;100015.34;;;11.74;82.88
76404;BME280;65232;48.358;2.122;2022-12-29T00:53:46;100007.03;;;11.77;83.13
76404;BME280;65232;48.358;2.122;2022-12-29T00:54:12;100014.94;;;11.79;82.97
76404;BME280;65232;48.358;2.122;2022-12-29T00:54:38;100014.94;;;11.79;82.83
76404;BME280;65232;48.358;2.122;2022-12-29T00:55:04;100011.25;;;11.80;82.92
76404;BME280;65232;48.358;2.122;2022-12-29T00:55:30;99999.25;;;11.74;83.06
76404;BME280;65232;48.358;2.122;2022-12-29T00:55:55;100009.13;;;11.74;83.29
76404;BME280;65232;48.358;2.122;2022-12-29T00:56:21;100006.19;;;11.77;83.00
76404;BME280;65232;48.358;2.122;2022-12-29T00:56:50;100011.16;;;11.72;83.42
76404;BME280;65232;48.358;2.122;2022-12-29T00:57:16;99994.38;;;11.70;83.35
76404;BME280;65232;48.358;2.122;2022-12-29T00:57:41;99994.84;;;11.65;83.44
76404;BME280;65232;48.358;2.122;2022-12-29T00:58:07;99993.00;;;11.65;83.53
76404;BME280;65232;48.358;2.122;2022-12-29T00:58:32;99998.41;;;11.74;83.22
76404;BME280;65232;48.358;2.122;2022-12-29T00:59:02;100004.50;;;11.76;83.22
76404;BME280;65232;48.358;2.122;2022-12-29T00:59:28;99996.31;;;11.77;83.00
76404;BME280;65232;48.358;2.122;2022-12-29T00:59:55;99996.31;;;11.77;83.08
76404;BME280;65232;48.358;2.122;2022-12-29T01:00:21;100000.38;;;11.81;82.93
76404;BME280;65232;48.358;2.122;2022-12-29T01:00:46;100004.03;;;11.80;82.89
76404;BME280;65232;48.358;2.122;2022-12-29T01:01:12;99997.69;;;11.81;82.83
76404;BME280;65232;48.358;2.122;2022-12-29T01:01:38;100006.72;;;11.80;82.74
76404;BME280;65232;48.358;2.122;2022-12-29T01:02:04;99995.72;;;11.74;83.11
76404;BME280;65232;48.358;2.122;2022-12-29T01:02:30;100001.38;;;11.80;82.92
76404;BME280;65232;48.358;2.122;2022-12-29T01:02:55;99991.63;;;11.79;82.75
76404;BME280;65232;48.358;2.122;2022-12-29T01:03:21;99996.00;;;11.80;82.87
76404;BME280;65232;48.358;2.122;2022-12-29T01:03:46;100000.69;;;11.78;82.51
76404;BME280;65232;48.358;2.122;2022-12-29T01:04:12;100012.78;;;11.82;82.82
76404;BME280;65232;48.358;2.122;2022-12-29T01:04:38;100007.41;;;11.82;82.64
76404;BME280;65232;48.358;2.122;2022-12-29T01:05:03;99999.69;;;11.79;83.00
76404;BME280;65232;48.358;2.122;2022-12-29T01:05:29;99990.66;;;11.80;82.85
76404;BME280;65232;48.358;2.122;2022-12-29T01:05:54;99995.84;;;11.82;82.77
76404;BME280;65232;48.358;2.122;2022-12-29T01:06:20;100010.66;;;11.86;82.78
76404;BME280;65232;48.358;2.122;2022-12-29T01:06:46;99993.38;;;11.88;82.34
76404;BME280;65232;48.358;2.122;2022-12-29T01:07:14;99993.88;;;11.84;82.60
76404;BME280;65232;48.358;2.122;2022-12-29T01:07:39;99993.88;;;11.84;82.79
76404;BME280;65232;48.358;2.122;2022-12-29T01:08:05;99995.00;;;11.81;82.91
76404;BME280;65232;48.358;2.122;2022-12-29T01:08:30;100004.03;;;11.80;82.97
76404;BME280;65232;48.358;2.122;2022-12-29T01:08:56;100006.72;;;11.80;82.87
76404;BME280;65232;48.358;2.122;2022-12-29T01:09:40;100010.31;;;11.71;83.45
76404;BME280;65232;48.358;2.122;2022-12-29T01:10:24;100004.34;;;11.77;83.31
76404;BME280;65232;48.358;2.122;2022-12-29T01:11:20;100007.03;;;11.77;83.05
76404;BME280;65232;48.358;2.122;2022-12-29T01:11:46;100002.38;;;11.79;83.01
76404;BME280;65232;48.358;2.122;2022-12-29T01:12:11;100006.31;;;11.75;83.16
76404;BME280;65232;48.358;2.122;2022-12-29T01:12:37;100012.66;;;11.74;83.70
76404;BME280;65232;48.358;2.122;2022-12-29T01:13:08;99999.13;;;11.76;83.39
76404;BME280;65232;48.358;2.122;2022-12-29T01:13:34;100007.72;;;11.79;83.23
76404;BME280;65232;48.358;2.122;2022-12-29T01:13:59;100017.75;;;11.77;83.18
76404;BME280;65232;48.358;2.122;2022-12-29T01:14:25;100002.94;;;11.73;83.40
76404;BME280;65232;48.358;2.122;2022-12-29T01:14:51;100007.19;;;11.76;83.42
76404;BME280;65232;48.358;2.122;2022-12-29T01:15:16;100004.19;;;11.79;83.25
76404;BME280;65232;48.358;2.122;2022-12-29T01:15:49;100009.72;;;11.77;83.31
76404;BME280;65232;48.358;2.122;2022-12-29T01:16:15;100009.88;;;11.76;83.43
76404;BME280;65232;48.358;2.122;2022-12-29T01:16:41;100004.94;;;11.71;83.67
76404;BME280;65232;48.358;2.122;2022-12-29T01:17:07;99999.41;;;11.73;83.55
76404;BME280;65232;48.358;2.122;2022-12-29T01:17:32;100000.09;;;11.75;83.59
76404;BME280;65232;48.358;2.122;2022-12-29T01:17:58;100001.81;;;11.76;83.77
76404;BME280;65232;48.358;2.122;2022-12-29T01:18:24;100014.69;;;11.72;83.63
76404;BME280;65232;48.358;2.122;2022-12-29T01:18:50;100007.94;;;11.68;83.91
76404;BME280;65232;48.358;2.122;2022-12-29T01:19:17;100006.53;;;11.64;84.13
76404;BME280;65232;48.358;2.122;2022-12-29T01:19:43;100011.75;;;11.65;84.19
76404;BME280;65232;48.358;2.122;2022-12-29T01:20:08;100015.59;;;11.63;84.36
76404;BME280;65232;48.358;2.122;2022-12-29T01:20:34;100005.56;;;11.65;84.12
76404;BME280;65232;48.358;2.122;2022-12-29T01:21:01;99999.50;;;11.63;84.41
76404;BME280;65232;48.358;2.122;2022-12-29T01:21:27;100009.63;;;11.69;84.28
76404;BME280;65232;48.358;2.122;2022-12-29T01:21:52;100010.22;;;11.63;84.43
76404;BME280;65232;48.358;2.122;2022-12-29T01:22:18;100015.44;;;11.64;84.24
76404;BME280;65232;48.358;2.122;2022-12-29T01:22:43;100015.59;;;11.63;84.48
76404;BME280;65232;48.358;2.122;2022-12-29T01:23:09;100006.00;;;11.60;84.62
76404;BME280;65232;48.358;2.122;2022-12-29T01:23:34;100010.53;;;11.60;84.60
76404;BME280;65232;48.358;2.122;2022-12-29T01:24:00;100009.78;;;11.68;84.33
76404;BME280;65232;48.358;2.122;2022-12-29T01:24:25;100006.94;;;11.69;84.52
76404;BME280;65232;48.358;2.122;2022-12-29T01:24:51;99998.34;;;11.65;84.42
76404;BME280;65232;48.358;2.122;2022-12-29T01:25:17;99992.00;;;11.66;84.39
76404;BME280;65232;48.358;2.122;2022-12-29T01:25:42;100017.38;;;11.72;84.41
76404;BME280;65232;48.358;2.122;2022-12-29T01:26:12;100004.25;;;11.69;84.33
76404;BME280;65232;48.358;2.122;2022-12-29T01:26:38;100003.41;;;11.69;84.43
76404;BME280;65232;48.358;2.122;2022-12-29T01:27:03;100011.75;;;11.65;84.37
76404;BME280;65232;48.358;2.122;2022-12-29T01:27:29;100011.59;;;11.67;84.58
76404;BME280;65232;48.358;2.122;2022-12-29T01:27:54;100014.97;;;11.69;84.53
76404;BME280;65232;48.358;2.122;2022-12-29T01:28:20;99999.25;;;11.74;84.62
76404;BME280;65232;48.358;2.122;2022-12-29T01:28:45;100010.56;;;11.78;84.27
76404;BME280;65232;48.358;2.122;2022-12-29T01:29:11;100004.63;;;11.74;84.36
76404;BME280;65232;48.358;2.122;2022-12-29T01:29:37;100008.22;;;11.65;84.67
76404;BME280;65232;48.358;2.122;2022-12-29T01:30:04;100009.53;;;11.61;85.10
76404;BME280;65232;48.358;2.122;2022-12-29T01:30:32;100017.41;;;11.62;85.18
76404;BME280;65232;48.358;2.122;2022-12-29T01:31:00;100002.03;;;11.64;84.92
76404;BME280;65232;48.358;2.122;2022-12-29T01:31:26;100006.16;;;11.59;85.36
76404;BME280;65232;48.358;2.122;2022-12-29T01:31:52;100007.53;;;11.63;85.39
76404;BME280;65232;48.358;2.122;2022-12-29T01:32:18;100004.03;;;11.62;85.49
76404;BME280;65232;48.358;2.122;2022-12-29T01:32:44;100001.50;;;11.61;85.59
76404;BME280;65232;48.358;2.122;2022-12-29T01:33:09;100012.75;;;11.64;85.30
76404;BME280;65232;48.358;2.122;2022-12-29T01:33:35;99999.81;;;11.60;85.48
76404;BME280;65232;48.358;2.122;2022-12-29T01:34:00;100003.66;;;11.57;85.82
76404;BME280;65232;48.358;2.122;2022-12-29T01:34:26;100001.50;;;11.61;85.71
76404;BME280;65232;48.358;2.122;2022-12-29T01:34:51;100002.13;;;11.55;85.73
76404;BME280;65232;48.358;2.122;2022-12-29T01:35:17;99998.34;;;11.48;86.17
76404;BME280;65232;48.358;2.122;2022-12-29T01:35:42;100001.72;;;11.50;86.14
76404;BME280;65232;48.358;2.122;2022-12-29T01:36:11;100001.28;;;11.54;85.81
76404;BME280;65232;48.358;2.122;2022-12-29T01:36:36;99999.75;;;11.52;86.12
76404;BME280;65232;48.358;2.122;2022-12-29T01:37:02;99994.22;;;11.53;85.83
76404;BME280;65232;48.358;2.122;2022-12-29T01:37:27;99994.59;;;11.58;85.89
76404;BME280;65232;48.358;2.122;2022-12-29T01:37:53;99993.09;;;11.56;85.85
76404;BME280;65232;48.358;2.122;2022-12-29T01:38:19;100000.97;;;11.57;85.73
76404;BME280;65232;48.358;2.122;2022-12-29T01:38:44;99991.63;;;11.61;85.55
76404;BME280;65232;48.358;2.122;2022-12-29T01:39:10;99984.56;;;11.60;85.54
76404;BME280;65232;48.358;2.122;2022-12-29T01:39:36;99989.09;;;11.60;85.69
76404;BME280;65232;48.358;2.122;2022-12-29T01:40:01;99995.63;;;11.57;85.64
76404;BME280;65232;48.358;2.122;2022-12-29T01:40:27;99991.69;;;11.52;85.80
76404;BME280;65232;48.358;2.122;2022-12-29T01:40:53;99989.16;;;11.50;85.83
76404;BME280;65232;48.358;2.122;2022-12-29T01:41:19;99998.44;;;11.56;85.79
76404;BME280;65232;48.358;2.122;2022-12-29T01:41:44;99993.94;;;11.56;85.82
76404;BME280;65232;48.358;2.122;2022-12-29T01:42:16;99980.69;;;11.55;85.99
76404;BME280;65232;48.358;2.122;2022-12-29T01:42:42;99998.81;;;11.61;85.72
76404;BME280;65232;48.358;2.122;2022-12-29T01:43:11;99987.25;;;11.60;85.59
76404;BME280;65232;48.358;2.122;2022-12-29T01:43:55;99985.09;;;11.64;85.59
76404;BME280;65232;48.358;2.122;2022-12-29T01:44:50;99985.06;;;11.56;85.53
76404;BME280;65232;48.358;2.122;2022-12-29T01:45:17;99987.09;;;11.62;85.15
76404;BME280;65232;48.358;2.122;2022-12-29T01:45:47;99991.63;;;11.61;85.26
76404;BME280;65232;48.358;2.122;2022-12-29T01:46:39;99992.69;;;11.69;84.99
76404;BME280;65232;48.358;2.122;2022-12-29T01:47:03;99995.53;;;11.67;84.84
76404;BME280;65232;48.358;2.122;2022-12-29T01:47:33;100004.25;;;11.69;84.59
76404;BME280;65232;48.358;2.122;2022-12-29T01:48:03;99992.00;;;11.66;84.56
76404;BME280;65232;48.358;2.122;2022-12-29T01:48:30;100002.19;;;11.63;84.88
76404;BME280;65232;48.358;2.122;2022-12-29T01:49:12;99998.97;;;11.59;84.89
76404;BME280;65232;48.358;2.122;2022-12-29T01:49:38;100002.34;;;11.61;84.79
76404;BME280;65232;48.358;2.122;2022-12-29T01:50:40;99996.53;;;11.66;84.74
76404;BME280;65232;48.358;2.122;2022-12-29T01:50:58;100006.84;;;11.61;84.87
76404;BME280;65232;48.358;2.122;2022-12-29T01:51:25;100001.19;;;11.64;84.90
76404;BME280;65232;48.358;2.122;2022-12-29T01:51:54;100009.06;;;11.65;84.76
76404;BME280;65232;48.358;2.122;2022-12-29T01:52:23;100005.56;;;11.65;84.79
76404;BME280;65232;48.358;2.122;2022-12-29T01:52:58;100000.88;;;11.67;84.77
76404;BME280;65232;48.358;2.122;2022-12-29T01:53:30;100011.06;;;11.63;85.17
76404;BME280;65232;48.358;2.122;2022-12-29T01:54:00;99993.84;;;11.66;85.23
76404;BME280;65232;48.358;2.122;2022-12-29T01:54:55;99998.22;;;11.67;85.22
76404;BME280;65232;48.358;2.122;2022-12-29T01:55:22;100000.19;;;11.65;85.56
76404;BME280;65232;48.358;2.122;2022-12-29T01:55:52;99988.19;;;11.69;85.63
76404;BME280;65232;48.358;2.122;2022-12-29T01:56:21;99986.94;;;11.63;85.80
76404;BME280;65232;48.358;2.122;2022-12-29T01:56:46;99997.28;;;11.58;86.05
76404;BME280;65232;48.358;2.122;2022-12-29T01:57:27;99998.13;;;11.59;86.05
76404;BME280;65232;48.358;2.122;2022-12-29T01:57:55;99989.41;;;11.57;86.48
76404;BME280;65232;48.358;2.122;2022-12-29T01:58:24;99994.38;;;11.52;86.23
76404;BME280;65232;48.358;2.122;2022-12-29T01:59:00;99995.06;;;11.54;86.26
76404;BME280;65232;48.358;2.122;2022-12-29T01:59:33;99995.06;;;11.54;86.50
76404;BME280;65232;48.358;2.122;2022-12-29T02:00:03;99988.03;;;11.53;86.65
76404;BME280;65232;48.358;2.122;2022-12-29T02:00:38;99997.50;;;11.47;86.62
76404;BME280;65232;48.358;2.122;2022-12-29T02:01:03;99999.19;;;11.48;86.63
76404;BME280;65232;48.358;2.122;2022-12-29T02:01:29;99999.09;;;11.58;86.36
76404;BME280;65232;48.358;2.122;2022-12-29T02:01:55;100001.63;;;11.59;86.40
76404;BME280;65232;48.358;2.122;2022-12-29T02:02:21;99995.63;;;11.57;86.37
76404;BME280;65232;48.358;2.122;2022-12-29T02:02:53;100006.16;;;11.59;86.26
76404;BME280;65232;48.358;2.122;2022-12-29T02:03:19;99997.13;;;11.60;86.53
76404;BME280;65232;48.358;2.122;2022-12-29T02:03:46;100003.47;;;11.59;86.34
76404;BME280;65232;48.358;2.122;2022-12-29T02:04:13;100001.13;;;11.56;86.61
76404;BME280;65232;48.358;2.122;2022-12-29T02:04:41;99996.75;;;11.55;86.62
76404;BME280;65232;48.358;2.122;2022-12-29T02:05:33;99996.66;;;11.47;87.11
76404;BME280;65232;48.358;2.122;2022-12-29T02:06:14;99988.56;;;11.39;87.24
76404;BME280;65232;48.358;2.122;2022-12-29T02:06:51;99983.66;;;11.34;87.54
76404;BME280;65232;48.358;2.122;2022-12-29T02:07:20;99981.66;;;11.36;87.54
76404;BME280;65232;48.358;2.122;2022-12-29T02:07:46;99983.34;;;11.37;87.68
76404;BME280;65232;48.358;2.122;2022-12-29T02:08:13;99985.03;;;11.38;87.46
76404;BME280;65232;48.358;2.122;2022-12-29T02:08:39;99985.88;;;11.39;87.42
76404;BME280;65232;48.358;2.122;2022-12-29T02:09:06;99985.59;;;11.42;87.44
76404;BME280;65232;48.358;2.122;2022-12-29T02:09:31;99982.28;;;11.48;87.24
76404;BME280;65232;48.358;2.122;2022-12-29T02:09:57;99979.91;;;11.45;87.41
76404;BME280;65232;48.358;2.122;2022-12-29T02:10:25;99988.31;;;11.50;87.21
76404;BME280;65232;48.358;2.122;2022-12-29T02:10:53;99988.31;;;11.50;87.08
76404;BME280;65232;48.358;2.122;2022-12-29T02:11:22;99969.88;;;11.47;87.22
76404;BME280;65232;48.358;2.122;2022-12-29T02:11:48;99996.81;;;11.45;87.31
76404;BME280;65232;48.358;2.122;2022-12-29T02:12:19;99992.44;;;11.44;87.29
76404;BME280;65232;48.358;2.122;2022-12-29T02:12:45;99983.28;;;11.47;87.21
76404;BME280;65232;48.358;2.122;2022-12-29T02:13:14;100013.13;;;11.52;86.95
76404;BME280;65232;48.358;2.122;2022-12-29T02:13:40;99998.78;;;11.43;87.42
76404;BME280;65232;48.358;2.122;2022-12-29T02:14:10;100004.34;;;11.42;87.53
76404;BME280;65232;48.358;2.122;2022-12-29T02:14:36;100001.25;;;11.37;87.70
76404;BME280;65232;48.358;2.122;2022-12-29T02:15:03;100012.56;;;11.30;87.99
76404;BME280;65232;48.358;2.122;2022-12-29T02:20:11;99985.41;;;11.43;87.67
76404;BME280;65232;48.358;2.122;2022-12-29T02:30:08;100003.94;;;11.37;86.47
76404;BME280;65232;48.358;2.122;2022-12-29T02:32:01;100002.16;;;11.45;86.00
76404;BME280;65232;48.358;2.122;2022-12-29T02:33:38;99998.19;;;11.49;85.60
76404;BME280;65232;48.358;2.122;2022-12-29T02:34:57;99998.66;;;11.45;85.93
76404;BME280;65232;48.358;2.122;2022-12-29T02:39:08;100019.94;;;11.46;85.69
76404;BME280;65232;48.358;2.122;2022-12-29T02:39:41;100000.81;;;11.41;85.71
76404;BME280;65232;48.358;2.122;2022-12-29T02:41:50;100008.16;;;11.39;86.02
76404;BME280;65232;48.358;2.122;2022-12-29T02:42:08;100005.47;;;11.39;86.08
76404;BME280;65232;48.358;2.122;2022-12-29T02:42:47;100000.81;;;11.41;85.83
76404;BME280;65232;48.358;2.122;2022-12-29T02:43:45;99997.75;;;11.36;86.04
76404;BME280;65232;48.358;2.122;2022-12-29T02:45:04;99997.66;;;11.46;85.73
76404;BME280;65232;48.358;2.122;2022-12-29T02:45:39;99999.50;;;11.45;85.44
76404;BME280;65232;48.358;2.122;2022-12-29T02:46:36;100000.34;;;11.46;85.48
76404;BME280;65232;48.358;2.122;2022-12-29T02:47:15;100008.38;;;11.46;85.39
76404;BME280;65232;48.358;2.122;2022-12-29T02:48:23;100004.41;;;11.50;85.42
76404;BME280;65232;48.358;2.122;2022-12-29T02:49:09;100009.38;;;11.45;85.48
76404;BME280;65232;48.358;2.122;2022-12-29T02:50:15;100013.28;;;11.50;85.06
76404;BME280;65232;48.358;2.122;2022-12-29T02:51:02;100012.59;;;11.48;84.75
76404;BME280;65232;48.358;2.122;2022-12-29T02:51:52;100006.25;;;11.49;84.91
76404;BME280;65232;48.358;2.122;2022-12-29T02:52:30;100011.06;;;11.46;85.12
76404;BME280;65232;48.358;2.122;2022-12-29T02:53:00;100011.81;;;11.38;85.58
76404;BME280;65232;48.358;2.122;2022-12-29T02:53:28;100013.13;;;11.34;85.67
76404;BME280;65232;48.358;2.122;2022-12-29T02:54:12;100018.63;;;11.32;85.57
76404;BME280;65232;48.358;2.122;2022-12-29T02:54:58;100021.44;;;11.31;85.63
76404;BME280;65232;48.358;2.122;2022-12-29T02:55:24;100013.66;;;11.38;85.20
76404;BME280;65232;48.358;2.122;2022-12-29T02:55:49;100018.56;;;11.42;85.37
76404;BME280;65232;48.358;2.122;2022-12-29T02:56:17;100013.88;;;11.44;85.05
76404;BME280;65232;48.358;2.122;2022-12-29T02:56:42;100017.81;;;11.50;84.93
76404;BME280;65232;48.358;2.122;2022-12-29T02:57:46;100022.63;;;11.46;84.67
76404;BME280;65232;48.358;2.122;2022-12-29T02:58:21;100021.63;;;11.47;84.93
76404;BME280;65232;48.358;2.122;2022-12-29T02:58:48;100023.94;;;11.42;84.95
76404;BME280;65232;48.358;2.122;2022-12-29T02:59:15;100031.44;;;11.39;85.00
76404;BME280;65232;48.358;2.122;2022-12-29T02:59:43;100013.66;;;11.38;85.19
76404;BME280;65232;48.358;2.122;2022-12-29T03:00:14;100024.22;;;11.39;85.11
76404;BME280;65232;48.358;2.122;2022-12-29T03:02:43;100009.75;;;11.50;84.48
76404;BME280;65232;48.358;2.122;2022-12-29T03:06:35;100031.44;;;11.39;84.80
76404;BME280;65232;48.358;2.122;2022-12-29T03:09:29;100032.78;;;11.43;84.31
76404;BME280;65232;48.358;2.122;2022-12-29T03:09:43;100035.31;;;11.44;84.30
76404;BME280;65232;48.358;2.122;2022-12-29T03:11:02;100033.63;;;11.43;83.86
76404;BME280;65232;48.358;2.122;2022-12-29T03:11:38;100042.69;;;11.42;83.84
76404;BME280;65232;48.358;2.122;2022-12-29T03:14:31;100040.81;;;11.43;83.59
76404;BME280;65232;48.358;2.122;2022-12-29T03:15:50;100048.84;;;11.43;83.69
76404;BME280;65232;48.358;2.122;2022-12-29T03:16:47;100046.94;;;11.35;84.05
76404;BME280;65232;48.358;2.122;2022-12-29T03:17:27;100043.13;;;11.38;83.97
76404;BME280;65232;48.358;2.122;2022-12-29T03:17:58;100045.66;;;11.39;83.84
76404;BME280;65232;48.358;2.122;2022-12-29T03:18:48;100045.97;;;11.36;83.74
76404;BME280;65232;48.358;2.122;2022-12-29T03:19:48;100044.84;;;11.29;84.16